createdAt,value
2018-11-28T00:26:19.106Z,7.70
2018-11-28T00:28:48.449Z,10.03
2018-11-28T00:31:17.716Z,12.90
2018-11-28T00:33:47.046Z,11.03
2018-11-28T00:36:16.411Z,3.43
2018-11-28T00:38:45.817Z,4.97
2018-11-28T00:41:15.264Z,7.90
2018-11-28T00:43:44.576Z,12.87
2018-11-28T00:46:13.876Z,9.00
2018-11-28T00:48:44.228Z,11.43
2018-11-28T00:51:14.491Z,10.47
2018-11-28T00:53:43.791Z,5.73
2018-11-28T00:56:13.175Z,8.90
2018-11-28T00:58:42.587Z,11.77
2018-11-28T01:01:12.119Z,8.10
2018-11-28T01:03:41.832Z,12.93
2018-11-28T01:06:11.428Z,6.67
2018-11-28T01:08:40.757Z,12.03
2018-11-28T01:11:10.114Z,8.63
2018-11-28T01:13:39.393Z,7.80
2018-11-28T01:16:08.767Z,12.90
2018-11-28T01:18:38.029Z,7.67
2018-11-28T01:21:08.081Z,7.07
2018-11-28T01:23:37.442Z,9.73
2018-11-28T01:26:06.875Z,10.47
2018-11-28T01:28:36.140Z,8.37
2018-11-28T01:31:05.493Z,5.90
2018-11-28T01:33:34.845Z,34.07
2018-11-28T01:36:04.280Z,11.10
2018-11-28T01:38:33.532Z,3.80
2018-11-28T01:41:02.922Z,7.43
2018-11-28T01:43:32.220Z,7.87
2018-11-28T01:46:01.599Z,5.43
2018-11-28T01:48:30.936Z,10.33
2018-11-28T01:51:00.293Z,6.13
2018-11-28T01:53:29.605Z,11.67
2018-11-28T01:55:58.953Z,8.73
2018-11-28T02:07:50.612Z,6.87
2018-11-28T02:10:20.043Z,6.90
2018-11-28T04:05:39.296Z,4.83
2018-11-28T04:08:08.689Z,3.10
2018-11-28T04:41:15.261Z,5.67
2018-11-28T06:09:32.339Z,3.33
2018-11-28T06:36:17.615Z,8.17
2018-11-28T06:39:16.396Z,13.53
2018-11-28T06:48:00.329Z,2.80
2018-11-28T07:05:54.328Z,7.27
2018-11-28T07:11:43.770Z,9.68
2018-11-28T07:26:34.207Z,8.93
2018-11-28T07:41:28.715Z,4.70
2018-11-28T07:43:58.051Z,8.27
2018-11-28T07:49:51.936Z,9.30
2018-11-28T07:52:39.445Z,16.17
2018-11-28T07:58:06.762Z,8.13
2018-11-28T08:18:38.421Z,17.75
2018-11-28T08:21:13.503Z,18.00
2018-11-28T08:23:43.126Z,8.93
2018-11-28T08:26:12.975Z,14.33
2018-11-28T08:34:46.933Z,12.40
2018-11-28T08:37:16.330Z,16.93
2018-11-28T08:39:45.581Z,19.23
2018-11-28T08:42:14.888Z,14.80
2018-11-28T08:44:44.189Z,11.50
2018-11-28T08:47:13.572Z,18.60
2018-11-28T08:49:42.832Z,32.63
2018-11-28T08:52:12.126Z,27.53
2018-11-28T08:54:41.495Z,19.60
2018-11-28T08:57:10.738Z,23.47
2018-11-28T08:59:39.978Z,25.47
2018-11-28T09:02:09.282Z,17.97
2018-11-28T09:04:38.526Z,25.43
2018-11-28T09:07:07.802Z,28.03
2018-11-28T09:09:37.142Z,20.10
2018-11-28T09:12:06.613Z,21.23
2018-11-28T09:14:35.867Z,25.90
2018-11-28T09:17:05.295Z,30.95
2018-11-28T09:19:34.591Z,31.23
2018-11-28T09:22:03.875Z,37.77
2018-11-28T09:24:33.194Z,25.33
2018-11-28T09:27:03.700Z,29.70
2018-11-28T09:29:31.794Z,26.53
2018-11-28T09:32:01.019Z,24.50
2018-11-28T09:34:30.302Z,19.70
2018-11-28T09:36:59.546Z,15.93
2018-11-28T09:39:28.837Z,26.30
2018-11-28T09:41:58.101Z,18.53
2018-11-28T09:44:27.391Z,10.60
2018-11-28T09:46:56.670Z,17.90
2018-11-28T09:49:26.002Z,19.27
2018-11-28T09:51:55.213Z,6.23
2018-11-28T09:54:24.504Z,20.00
2018-11-28T09:56:53.815Z,13.73
2018-11-28T09:59:23.063Z,9.97
2018-11-28T10:01:52.294Z,13.00
2018-11-28T10:04:21.524Z,10.93
2018-11-28T10:06:50.757Z,8.10
2018-11-28T10:09:20.095Z,10.00
2018-11-28T10:11:49.395Z,9.63
2018-11-28T10:14:18.617Z,6.37
2018-11-28T10:16:48.241Z,15.27
2018-11-28T10:19:17.269Z,8.50
2018-11-28T10:21:46.525Z,6.53
2018-11-28T10:24:15.838Z,13.57
2018-11-28T10:26:45.143Z,27.50
2018-11-28T10:29:14.459Z,8.83
2018-11-28T10:31:43.693Z,5.53
2018-11-28T10:34:13.031Z,15.87
2018-11-28T10:36:42.369Z,16.60
2018-11-28T10:39:11.665Z,10.83
2018-11-28T10:41:40.947Z,11.53
2018-11-28T10:44:10.258Z,8.85
2018-11-28T10:46:39.604Z,8.20
2018-11-28T10:49:08.899Z,8.83
2018-11-28T10:51:38.154Z,11.47
2018-11-28T10:54:07.527Z,9.70
2018-11-28T10:56:36.807Z,9.33
2018-11-28T10:59:06.124Z,10.37
2018-11-28T11:01:39.461Z,5.23
2018-11-28T11:04:16.939Z,7.20
2018-11-28T11:06:51.146Z,8.53
2018-11-28T11:09:25.451Z,11.93
2018-11-28T11:11:59.787Z,7.77
2018-11-28T11:14:34.012Z,24.30
2018-11-28T11:17:03.303Z,10.77
2018-11-28T11:19:32.555Z,12.80
2018-11-28T11:22:01.894Z,18.73
2018-11-28T11:24:31.225Z,13.13
2018-11-28T11:27:00.511Z,18.70
2018-11-28T11:29:29.752Z,18.77
2018-11-28T11:31:59.091Z,10.20
2018-11-28T11:34:28.341Z,8.63
2018-11-28T11:36:57.639Z,20.30
2018-11-28T11:39:26.961Z,15.77
2018-11-28T11:41:56.266Z,15.93
2018-11-28T11:44:25.558Z,7.63
2018-11-28T11:46:54.798Z,7.90
2018-11-28T11:49:24.099Z,11.77
2018-11-28T11:51:53.400Z,13.30
2018-11-28T11:54:22.673Z,13.10
2018-11-28T11:56:52.021Z,26.57
2018-11-28T11:59:21.322Z,18.30
2018-11-28T12:01:54.681Z,9.97
2018-11-28T12:04:19.879Z,5.97
2018-11-28T12:06:49.195Z,9.33
2018-11-28T12:09:18.508Z,6.40
2018-11-28T12:11:47.811Z,8.97
2018-11-28T12:14:17.106Z,9.07
2018-11-28T12:16:46.465Z,12.40
2018-11-28T12:19:15.787Z,11.40
2018-11-28T12:21:45.055Z,11.23
2018-11-28T12:24:14.244Z,9.60
2018-11-28T12:26:43.492Z,7.37
2018-11-28T12:29:12.719Z,12.83
2018-11-28T12:31:42.026Z,7.93
2018-11-28T12:34:11.247Z,14.90
2018-11-28T12:36:40.547Z,8.03
2018-11-28T12:39:11.566Z,12.73
2018-11-28T12:41:40.903Z,7.00
2018-11-28T12:44:10.205Z,10.07
2018-11-28T12:46:39.491Z,11.60
2018-11-28T12:49:08.843Z,9.03
2018-11-28T12:51:38.138Z,6.23
2018-11-28T12:54:07.413Z,11.73
2018-11-28T12:56:36.659Z,10.97
2018-11-28T12:59:05.949Z,9.93
2018-11-28T13:01:35.190Z,7.20
2018-11-28T13:04:04.490Z,10.40
2018-11-28T13:06:33.686Z,6.30
2018-11-28T13:09:03.057Z,10.87
2018-11-28T13:11:32.335Z,10.27
2018-11-28T13:14:01.599Z,9.90
2018-11-28T13:16:30.880Z,7.53
2018-11-28T13:19:00.185Z,9.10
2018-11-28T13:21:29.515Z,8.57
2018-11-28T13:23:58.987Z,10.43
2018-11-28T13:26:28.287Z,8.30
2018-11-28T13:28:57.590Z,7.23
2018-11-28T13:31:26.930Z,8.50
2018-11-28T13:33:56.238Z,10.90
2018-11-28T13:36:25.495Z,8.90
2018-11-28T13:38:54.826Z,8.70
2018-11-28T13:41:24.185Z,9.33
2018-11-28T13:43:53.458Z,9.40
2018-11-28T13:46:22.695Z,13.37
2018-11-28T13:48:52.154Z,11.23
2018-11-28T13:51:21.510Z,8.20
2018-11-28T13:53:50.835Z,7.40
2018-11-28T13:58:49.603Z,17.30
2018-11-28T14:01:18.932Z,8.50
2018-11-28T14:03:48.236Z,6.93
2018-11-28T14:06:17.535Z,10.00
2018-11-28T14:08:46.906Z,8.43
2018-11-28T14:11:16.274Z,17.23
2018-11-28T14:13:45.565Z,10.40
2018-11-28T14:16:14.855Z,16.03
2018-11-28T14:18:44.764Z,8.98
2018-11-28T14:21:14.421Z,8.83
2018-11-28T14:23:43.675Z,8.27
2018-11-28T14:26:14.785Z,10.27
2018-11-28T14:28:44.151Z,13.67
2018-11-28T14:31:14.227Z,7.83
2018-11-28T14:33:43.520Z,6.10
2018-11-28T14:36:12.959Z,6.60
2018-11-28T14:38:42.256Z,9.53
2018-11-28T14:41:13.662Z,7.07
2018-11-28T14:43:49.520Z,8.10
2018-11-28T14:46:18.946Z,10.32
2018-11-28T14:48:48.222Z,14.43
2018-11-28T14:51:17.619Z,6.53
2018-11-28T14:53:48.125Z,14.57
2018-11-28T14:56:17.439Z,9.63
2018-11-28T14:58:46.763Z,13.17
2018-11-28T15:01:16.309Z,15.83
2018-11-28T15:03:45.639Z,12.33
2018-11-28T15:07:17.515Z,19.07
2018-11-28T15:09:54.635Z,15.47
2018-11-28T15:12:25.010Z,7.00
2018-11-28T15:14:54.511Z,19.80
2018-11-28T15:17:23.743Z,11.83
2018-11-28T15:19:53.574Z,8.53
2018-11-28T15:22:24.023Z,16.97
2018-11-28T15:24:53.351Z,19.00
2018-11-28T15:27:22.916Z,20.97
2018-11-28T15:29:52.158Z,17.37
2018-11-28T15:32:21.378Z,14.53
2018-11-28T15:34:50.691Z,14.90
2018-11-28T15:37:20.261Z,17.80
2018-11-28T15:39:55.716Z,10.37
2018-11-28T15:42:22.305Z,14.37
2018-11-28T15:44:52.150Z,10.53
2018-11-28T15:47:21.451Z,15.27
2018-11-28T15:49:50.912Z,8.33
2018-11-28T15:52:20.423Z,21.70
2018-11-28T15:54:49.763Z,22.03
2018-11-28T15:57:19.086Z,14.80
2018-11-28T15:59:49.385Z,16.77
2018-11-28T16:02:18.723Z,18.30
2018-11-28T16:04:47.986Z,15.83
2018-11-28T16:07:17.234Z,18.40
2018-11-28T16:09:52.517Z,14.10
2018-11-28T16:12:21.966Z,10.63
2018-11-28T16:14:51.906Z,12.20
2018-11-28T16:17:21.247Z,12.00
2018-11-28T16:19:50.569Z,9.90
2018-11-28T16:22:19.957Z,13.27
2018-11-28T16:24:49.226Z,15.20
2018-11-28T16:27:18.483Z,13.57
2018-11-28T16:29:47.707Z,8.67
2018-11-28T16:32:16.991Z,12.03
2018-11-28T16:34:46.310Z,11.80
2018-11-28T16:37:15.705Z,6.93
2018-11-28T16:39:45.047Z,17.63
2018-11-28T16:42:15.486Z,9.40
2018-11-28T16:44:44.841Z,9.70
2018-11-28T16:47:14.158Z,8.43
2018-11-28T16:49:43.486Z,16.23
2018-11-28T16:52:12.948Z,17.77
2018-11-28T16:54:42.170Z,23.40
2018-11-28T16:57:11.503Z,17.40
2018-11-28T16:59:40.786Z,27.17
2018-11-28T17:02:10.202Z,18.37
2018-11-28T17:04:39.605Z,11.97
2018-11-28T17:07:08.934Z,11.77
2018-11-28T17:09:38.279Z,23.93
2018-11-28T17:12:10.918Z,16.97
2018-11-28T17:14:42.462Z,8.60
2018-11-28T17:17:11.863Z,13.50
2018-11-28T17:19:41.330Z,23.40
2018-11-28T17:22:10.829Z,12.60
2018-11-28T17:24:40.968Z,13.10
2018-11-28T17:27:10.743Z,18.30
2018-11-28T17:29:40.178Z,17.00
2018-11-28T17:32:09.835Z,14.80
2018-11-28T17:34:39.244Z,13.27
2018-11-28T17:37:09.690Z,12.80
2018-11-28T17:39:39.139Z,9.90
2018-11-28T17:42:09.573Z,9.77
2018-11-28T17:44:39.054Z,9.33
2018-11-28T17:47:08.477Z,18.97
2018-11-28T17:49:37.888Z,13.20
2018-11-28T17:52:07.410Z,11.30
2018-11-28T17:54:36.789Z,13.10
2018-11-28T17:57:06.612Z,13.00
2018-11-28T17:59:36.030Z,10.07
2018-11-28T18:02:05.591Z,21.42
2018-11-28T18:04:35.137Z,12.17
2018-11-28T18:07:04.569Z,17.37
2018-11-28T18:09:33.973Z,8.47
2018-11-28T18:12:03.328Z,9.07
2018-11-28T18:14:32.679Z,15.40
2018-11-28T18:17:02.050Z,14.07
2018-11-28T18:19:31.384Z,14.40
2018-11-28T18:22:02.678Z,15.07
2018-11-28T18:24:32.131Z,18.20
2018-11-28T18:27:01.497Z,19.10
2018-11-28T18:29:30.902Z,18.17
2018-11-28T18:32:00.258Z,26.53
2018-11-28T18:34:29.669Z,13.30
2018-11-28T18:36:59.618Z,25.93
2018-11-28T18:39:29.082Z,23.03
2018-11-28T18:41:58.473Z,23.13
2018-11-28T18:44:27.840Z,23.53
2018-11-28T18:46:57.152Z,23.50
2018-11-28T18:49:26.542Z,15.27
2018-11-28T18:51:55.857Z,17.53
2018-11-28T18:54:25.254Z,30.13
2018-11-28T18:56:54.634Z,23.90
2018-11-28T18:59:24.036Z,23.33
2018-11-28T19:01:53.445Z,27.57
2018-11-28T19:04:22.841Z,27.97
2018-11-28T19:06:52.189Z,20.43
2018-11-28T19:09:26.678Z,40.40
2018-11-28T19:11:56.029Z,31.43
2018-11-28T19:14:25.415Z,29.77
2018-11-28T19:16:54.935Z,25.00
2018-11-28T19:19:24.278Z,24.77
2018-11-28T19:21:53.628Z,24.60
2018-11-28T19:24:23.034Z,17.87
2018-11-28T19:26:52.404Z,27.27
2018-11-28T19:29:21.826Z,24.77
2018-11-28T19:31:51.190Z,32.00
2018-11-28T19:34:20.626Z,21.40
2018-11-28T19:36:50.034Z,27.77
2018-11-28T19:39:19.459Z,19.60
2018-11-28T19:41:48.842Z,22.83
2018-11-28T19:44:18.416Z,16.03
2018-11-28T19:46:47.853Z,14.77
2018-11-28T19:49:17.428Z,21.23
2018-11-28T19:51:46.755Z,9.73
2018-11-28T19:54:16.117Z,21.90
2018-11-28T19:56:45.427Z,10.77
2018-11-28T19:59:14.777Z,21.47
2018-11-28T20:01:44.163Z,17.43
2018-11-28T20:04:13.549Z,18.40
2018-11-28T20:06:42.910Z,23.43
2018-11-28T20:09:17.834Z,19.80
2018-11-28T20:11:47.301Z,18.00
2018-11-28T20:14:16.805Z,18.97
2018-11-28T20:16:46.269Z,25.83
2018-11-28T20:19:17.607Z,36.27
2018-11-28T20:21:45.178Z,28.60
2018-11-28T20:24:14.634Z,34.17
2018-11-28T20:26:43.978Z,20.07
2018-11-28T20:29:13.312Z,46.23
2018-11-28T20:31:42.749Z,24.50
2018-11-28T20:34:12.234Z,40.03
2018-11-28T20:36:41.646Z,28.60
2018-11-28T20:39:11.243Z,30.70
2018-11-28T20:41:40.782Z,30.90
2018-11-28T20:44:10.250Z,25.50
2018-11-28T20:46:39.730Z,25.07
2018-11-28T20:49:09.222Z,23.77
2018-11-28T20:51:38.768Z,27.80
2018-11-28T20:54:08.172Z,25.53
2018-11-28T20:56:37.558Z,34.10
2018-11-28T20:59:07.175Z,29.23
2018-11-28T21:01:36.621Z,26.43
2018-11-28T21:04:06.380Z,27.20
2018-11-28T21:06:35.766Z,12.83
2018-11-28T21:09:07.852Z,35.93
2018-11-28T21:11:37.211Z,17.60
2018-11-28T21:14:06.681Z,18.27
2018-11-28T21:16:36.625Z,20.37
